createdAt,value
2023-01-21T00:00:51.620Z,-3.30
2023-01-21T00:04:55.101Z,-3.30
2023-01-21T00:09:26.254Z,-3.40
2023-01-21T00:13:29.700Z,-3.40
2023-01-21T00:17:36.061Z,-3.40
2023-01-21T00:21:41.866Z,-3.40
2023-01-21T00:25:46.970Z,-3.40
2023-01-21T00:29:50.438Z,-3.50
2023-01-21T00:33:54.226Z,-3.50
2023-01-21T00:37:57.644Z,-3.50
2023-01-21T00:42:28.193Z,-3.50
2023-01-21T00:46:31.680Z,-3.50
2023-01-21T00:50:37.305Z,-3.50
2023-01-21T00:54:40.783Z,-3.50
2023-01-21T00:58:45.810Z,-3.50
2023-01-21T01:02:49.460Z,-3.40
2023-01-21T01:06:53.005Z,-3.40
2023-01-21T01:10:57.401Z,-3.40
2023-01-21T01:15:02.229Z,-3.50
2023-01-21T01:19:05.809Z,-3.50
2023-01-21T01:23:15.740Z,-3.50
2023-01-21T01:27:19.115Z,-3.40
2023-01-21T01:31:24.128Z,-3.40
2023-01-21T01:36:17.325Z,-3.50
2023-01-21T01:40:21.349Z,-3.60
2023-01-21T01:44:58.585Z,-3.60
2023-01-21T01:49:19.424Z,-3.60
2023-01-21T01:53:27.270Z,-3.60
2023-01-21T01:57:35.800Z,-3.60
2023-01-21T02:01:41.553Z,-3.60
2023-01-21T02:05:46.635Z,-3.60
2023-01-21T02:09:51.136Z,-3.60
2023-01-21T02:13:58.298Z,-3.70
2023-01-21T02:18:09.611Z,-3.70
2023-01-21T02:22:22.936Z,-3.70
2023-01-21T02:26:58.780Z,-3.70
2023-01-21T02:31:34.117Z,-3.70
2023-01-21T02:35:51.840Z,-3.70
2023-01-21T02:40:21.059Z,-3.70
2023-01-21T02:44:52.469Z,-3.70
2023-01-21T02:49:01.271Z,-3.70
2023-01-21T02:53:06.407Z,-3.70
2023-01-21T02:57:14.096Z,-3.80
2023-01-21T03:01:45.934Z,-3.80
2023-01-21T03:06:30.267Z,-3.80
2023-01-21T03:10:41.725Z,-3.80
2023-01-21T03:15:15.266Z,-3.80
2023-01-21T03:19:20.806Z,-3.80
2023-01-21T03:27:56.448Z,-3.80
2023-01-21T03:32:06.370Z,-3.80
2023-01-21T03:36:14.360Z,-3.80
2023-01-21T03:40:30.983Z,-3.80
2023-01-21T03:44:38.381Z,-3.80
2023-01-21T03:48:45.554Z,-3.90
2023-01-21T03:58:23.964Z,-4.00
2023-01-21T04:02:37.857Z,-4.10
2023-01-21T04:06:41.368Z,-4.10
2023-01-21T04:10:44.873Z,-4.20
2023-01-21T04:15:13.852Z,-4.20
2023-01-21T04:20:14.615Z,-4.20
2023-01-21T04:24:19.597Z,-4.30
2023-01-21T04:28:23.198Z,-4.30
2023-01-21T04:32:26.685Z,-4.30
2023-01-21T04:36:30.293Z,-4.30
2023-01-21T04:40:35.128Z,-4.30
2023-01-21T04:44:38.462Z,-4.30
2023-01-21T04:54:12.446Z,-4.30
2023-01-21T04:58:43.247Z,-4.30
2023-01-21T05:02:46.660Z,-4.20
2023-01-21T05:07:21.692Z,-4.30
2023-01-21T05:11:25.462Z,-4.20
2023-01-21T05:15:30.285Z,-4.20
2023-01-21T05:19:45.042Z,-4.20
2023-01-21T05:23:48.450Z,-4.20
2023-01-21T05:27:55.860Z,-4.20
2023-01-21T05:32:25.940Z,-4.30
2023-01-21T05:36:41.572Z,-4.30
2023-01-21T05:40:44.964Z,-4.30
2023-01-21T05:44:48.531Z,-4.40
2023-01-21T05:48:53.397Z,-4.30
2023-01-21T05:53:14.217Z,-4.30
2023-01-21T05:57:17.669Z,-4.30
2023-01-21T06:01:21.071Z,-4.30
2023-01-21T06:05:27.161Z,-4.40
2023-01-21T06:09:30.562Z,-4.30
2023-01-21T06:14:01.733Z,-4.50
2023-01-21T06:18:05.563Z,-4.40
2023-01-21T06:26:56.518Z,-4.40
2023-01-21T06:31:00.103Z,-4.40
2023-01-21T06:35:06.499Z,-4.50
2023-01-21T06:39:11.601Z,-4.50
2023-01-21T06:43:15.089Z,-4.50
2023-01-21T06:47:18.531Z,-4.50
2023-01-21T06:51:22.979Z,-4.50
2023-01-21T06:55:27.876Z,-4.50
2023-01-21T06:59:54.416Z,-4.50
2023-01-21T07:03:57.794Z,-4.60
2023-01-21T07:08:01.415Z,-4.70
2023-01-21T07:12:09.654Z,-4.60
2023-01-21T07:16:13.011Z,-4.70
2023-01-21T07:20:16.981Z,-4.60
2023-01-21T07:24:36.097Z,-4.40
2023-01-21T07:28:40.935Z,-4.50
2023-01-21T07:33:10.598Z,-4.50
2023-01-21T07:37:14.006Z,-4.50
2023-01-21T07:41:31.660Z,-4.40
2023-01-21T07:45:38.720Z,-4.40
2023-01-21T07:49:42.233Z,-4.40
2023-01-21T07:53:46.951Z,-4.30
2023-01-21T07:57:50.424Z,-4.30
2023-01-21T08:01:55.248Z,-4.20
2023-01-21T08:06:08.248Z,-4.30
2023-01-21T08:10:12.358Z,-4.20
2023-01-21T08:14:15.982Z,-4.30
2023-01-21T08:18:22.336Z,-4.20
2023-01-21T08:22:26.043Z,-4.10
2023-01-21T08:26:29.500Z,-4.10
2023-01-21T08:30:46.034Z,-4.10
2023-01-21T08:34:51.745Z,-3.90
2023-01-21T08:38:55.416Z,-3.80
2023-01-21T08:43:03.031Z,-3.80
2023-01-21T08:47:06.557Z,-3.70
2023-01-21T08:51:39.190Z,-3.70
2023-01-21T08:55:43.431Z,-3.80
2023-01-21T08:59:46.944Z,-3.70
2023-01-21T09:03:50.444Z,-3.80
2023-01-21T09:07:58.151Z,-3.90
2023-01-21T09:12:01.990Z,-3.80
2023-01-21T09:17:13.382Z,-3.50
2023-01-21T09:21:17.537Z,-3.30
2023-01-21T09:25:26.507Z,-3.10
2023-01-21T09:29:30.034Z,-2.90
2023-01-21T09:34:00.466Z,-2.80
2023-01-21T09:38:04.461Z,-2.60
2023-01-21T09:42:19.734Z,-2.50
2023-01-21T09:46:34.317Z,-2.40
2023-01-21T09:50:40.132Z,-2.50
2023-01-21T09:54:43.708Z,-2.60
2023-01-21T10:03:45.089Z,-2.90
2023-01-21T10:08:00.396Z,-2.60
2023-01-21T10:12:37.207Z,-2.30
2023-01-21T10:16:49.354Z,-2.20
2023-01-21T10:20:58.171Z,-2.40
2023-01-21T10:25:23.062Z,-2.20
2023-01-21T10:29:27.566Z,-2.30
2023-01-21T10:34:35.743Z,-2.00
2023-01-21T10:38:49.134Z,-2.10
2023-01-21T10:44:01.568Z,-2.30
2023-01-21T10:48:31.237Z,-2.30
2023-01-21T10:52:47.584Z,-2.30
2023-01-21T10:56:58.047Z,-2.50
2023-01-21T11:01:06.412Z,-2.50
2023-01-21T11:05:34.714Z,-2.50
2023-01-21T11:09:41.438Z,-2.50
2023-01-21T11:13:46.382Z,-2.60
2023-01-21T11:17:53.919Z,-2.70
2023-01-21T11:22:07.995Z,-2.70
2023-01-21T11:26:32.035Z,-2.80
2023-01-21T11:30:53.183Z,-2.60
2023-01-21T11:35:18.905Z,-2.60
2023-01-21T11:39:24.863Z,-2.60
2023-01-21T11:43:42.057Z,-2.80
2023-01-21T11:52:27.420Z,-2.60
2023-01-21T11:56:30.856Z,-2.60
2023-01-21T12:01:01.356Z,-2.50
2023-01-21T12:05:31.562Z,-2.60
2023-01-21T12:09:35.117Z,-2.60
2023-01-21T12:13:49.412Z,-2.80
2023-01-21T12:18:18.234Z,-2.70
2023-01-21T12:22:45.632Z,-2.60
2023-01-21T12:31:29.606Z,-2.60
2023-01-21T12:35:37.989Z,-2.60
2023-01-21T12:39:50.817Z,-2.50
2023-01-21T12:44:04.831Z,-2.60
2023-01-21T12:48:23.823Z,-2.70
2023-01-21T12:52:41.171Z,-2.80
2023-01-21T12:56:52.199Z,-2.80
2023-01-21T13:00:57.103Z,-2.90
2023-01-21T13:05:38.766Z,-2.90
2023-01-21T13:09:49.492Z,-3.00
2023-01-21T13:14:26.451Z,-3.00
2023-01-21T13:18:36.254Z,-3.00
2023-01-21T13:22:43.855Z,-3.10
2023-01-21T13:27:37.594Z,-3.10
2023-01-21T13:32:09.780Z,-3.40
2023-01-21T13:36:43.619Z,-3.40
2023-01-21T13:41:09.933Z,-3.30
2023-01-21T13:45:27.106Z,-3.40
2023-01-21T13:50:04.486Z,-3.40
2023-01-21T13:54:30.551Z,-3.40
2023-01-21T13:58:39.886Z,-3.40
2023-01-21T14:02:50.704Z,-3.50
2023-01-21T14:17:09.233Z,-3.70
2023-01-21T14:21:45.024Z,-3.50
2023-01-21T14:26:23.371Z,-3.70
2023-01-21T14:30:32.082Z,-3.70
2023-01-21T14:34:59.182Z,-3.70
2023-01-21T14:39:11.272Z,-3.70
2023-01-21T14:43:48.586Z,-3.80
2023-01-21T14:47:54.267Z,-3.90
2023-01-21T14:51:59.901Z,-3.90
2023-01-21T14:56:10.844Z,-4.00
2023-01-21T15:00:26.966Z,-4.00
2023-01-21T15:04:34.454Z,-4.00
2023-01-21T15:13:35.080Z,-4.20
2023-01-21T15:18:25.706Z,-4.20
2023-01-21T15:22:46.877Z,-4.20
2023-01-21T15:27:19.535Z,-4.10
2023-01-21T15:31:44.195Z,-4.20
2023-01-21T15:35:49.762Z,-4.20
2023-01-21T15:40:04.879Z,-4.30
2023-01-21T15:44:48.192Z,-4.30
2023-01-21T15:49:19.397Z,-4.20
2023-01-21T15:53:46.249Z,-4.20
2023-01-21T15:57:57.962Z,-4.20
2023-01-21T16:08:05.013Z,-4.20
2023-01-21T16:12:23.066Z,-4.20
2023-01-21T16:16:42.843Z,-4.10
2023-01-21T16:20:48.909Z,-4.10
2023-01-21T16:24:56.826Z,-4.10
2023-01-21T16:29:02.261Z,-4.10
2023-01-21T16:33:10.699Z,-4.10
2023-01-21T16:37:15.447Z,-4.10
2023-01-21T16:41:29.727Z,-4.10
2023-01-21T16:45:38.373Z,-4.20
2023-01-21T16:49:43.455Z,-4.20
2023-01-21T16:53:46.833Z,-4.20
2023-01-21T16:58:40.210Z,-4.30
2023-01-21T17:02:45.200Z,-4.20
2023-01-21T17:06:49.101Z,-4.30
2023-01-21T17:10:59.443Z,-4.20
2023-01-21T17:19:51.663Z,-4.20
2023-01-21T17:23:58.223Z,-4.20
2023-01-21T17:28:53.658Z,-4.10
2023-01-21T17:32:59.434Z,-4.10
2023-01-21T17:37:05.722Z,-4.10
2023-01-21T17:41:25.458Z,-4.20
2023-01-21T17:45:32.279Z,-4.20
2023-01-21T17:49:37.482Z,-4.20
2023-01-21T17:53:46.195Z,-4.10
2023-01-21T17:57:52.075Z,-4.20
2023-01-21T18:02:05.417Z,-4.10
2023-01-21T18:06:22.074Z,-4.10
2023-01-21T18:10:29.031Z,-4.00
2023-01-21T18:15:02.885Z,-3.90
2023-01-21T18:19:06.327Z,-4.00
2023-01-21T18:24:11.292Z,-3.90
2023-01-21T18:28:20.186Z,-4.00
2023-01-21T18:32:24.479Z,-4.00
2023-01-21T18:36:27.943Z,-4.00
2023-01-21T18:41:21.976Z,-4.00
2023-01-21T18:45:54.275Z,-3.90
2023-01-21T18:50:03.116Z,-3.90
2023-01-21T18:54:07.446Z,-4.00
2023-01-21T18:58:14.753Z,-4.00
2023-01-21T19:02:22.054Z,-4.00
2023-01-21T19:06:26.647Z,-4.00
2023-01-21T19:10:41.470Z,-4.00
2023-01-21T19:14:44.862Z,-3.90
2023-01-21T19:18:58.893Z,-3.90
2023-01-21T19:23:02.256Z,-3.80
2023-01-21T19:27:11.637Z,-3.90
2023-01-21T19:31:15.078Z,-3.80
2023-01-21T19:35:32.604Z,-3.80
2023-01-21T19:39:36.108Z,-3.90
2023-01-21T19:43:39.667Z,-3.90
2023-01-21T19:48:57.603Z,-3.90
2023-01-21T19:53:02.532Z,-3.80
2023-01-21T19:57:06.145Z,-3.80
2023-01-21T20:01:21.895Z,-3.80
2023-01-21T20:05:26.428Z,-3.80
2023-01-21T20:09:32.223Z,-3.80
2023-01-21T20:14:00.281Z,-3.80
2023-01-21T20:18:05.259Z,-3.80
2023-01-21T20:22:14.394Z,-3.70
2023-01-21T20:26:32.303Z,-3.70
2023-01-21T20:30:35.888Z,-3.80
2023-01-21T20:35:08.824Z,-3.70
2023-01-21T20:39:14.381Z,-3.70
2023-01-21T20:43:36.773Z,-3.70
2023-01-21T20:47:49.676Z,-3.70
2023-01-21T20:51:57.750Z,-3.80
2023-01-21T20:56:03.375Z,-3.70
2023-01-21T21:00:31.400Z,-3.70
2023-01-21T21:04:41.085Z,-3.70
2023-01-21T21:08:44.801Z,-3.70
2023-01-21T21:12:48.349Z,-3.60
2023-01-21T21:17:11.160Z,-3.60
2023-01-21T21:21:16.245Z,-3.50
2023-01-21T21:25:28.827Z,-3.50
2023-01-21T21:29:32.225Z,-3.60
2023-01-21T21:34:10.179Z,-3.60
2023-01-21T21:38:17.434Z,-3.60
2023-01-21T21:43:23.584Z,-3.50
2023-01-21T21:47:49.801Z,-3.60
2023-01-21T21:51:53.333Z,-3.60
2023-01-21T21:56:33.106Z,-3.60
2023-01-21T22:00:36.527Z,-3.60
2023-01-21T22:04:40.024Z,-3.70
2023-01-21T22:08:44.633Z,-3.70
2023-01-21T22:12:49.724Z,-3.70
2023-01-21T22:16:54.157Z,-3.70
2023-01-21T22:21:23.336Z,-3.70
2023-01-21T22:25:26.854Z,-3.70
2023-01-21T22:29:31.596Z,-3.70
2023-01-21T22:33:38.603Z,-3.80
2023-01-21T22:37:42.010Z,-3.70
2023-01-21T22:41:49.821Z,-3.80
2023-01-21T22:45:57.338Z,-3.80
2023-01-21T22:50:00.851Z,-3.80
2023-01-21T23:00:37.744Z,-3.80
2023-01-21T23:04:42.608Z,-3.70
2023-01-21T23:08:46.195Z,-3.70
2023-01-21T23:12:51.011Z,-3.60
2023-01-21T23:16:54.819Z,-3.60
2023-01-21T23:20:59.565Z,-3.60
2023-01-21T23:25:16.775Z,-3.60
2023-01-21T23:29:20.251Z,-3.60
2023-01-21T23:33:40.207Z,-3.60
2023-01-21T23:37:44.995Z,-3.60
2023-01-21T23:41:48.554Z,-3.60
2023-01-21T23:45:52.106Z,-3.60
2023-01-21T23:49:55.647Z,-3.60
2023-01-21T23:54:18.754Z,-3.60
2023-01-21T23:58:22.235Z,-3.50
